sensor_id;sensor_type;location;lat;lon;timestamp;P1;durP1;ratioP1;P2;durP2;ratioP2
78589;SDS011;67888;50.228;7.828;2023-07-20T00:03:40;8.70;;;3.00;;
78589;SDS011;67888;50.228;7.828;2023-07-20T00:08:40;8.52;;;2.67;;
78589;SDS011;67888;50.228;7.828;2023-07-20T00:13:41;7.77;;;2.43;;
78589;SDS011;67888;50.228;7.828;2023-07-20T00:18:43;7.70;;;2.63;;
78589;SDS011;67888;50.228;7.828;2023-07-20T00:23:43;9.48;;;3.10;;
78589;SDS011;67888;50.228;7.828;2023-07-20T00:28:44;7.17;;;2.50;;
78589;SDS011;67888;50.228;7.828;2023-07-20T00:33:44;7.07;;;2.43;;
78589;SDS011;67888;50.228;7.828;2023-07-20T00:38:44;8.77;;;2.53;;
78589;SDS011;67888;50.228;7.828;2023-07-20T00:43:45;7.10;;;2.80;;
78589;SDS011;67888;50.228;7.828;2023-07-20T00:48:45;9.53;;;2.70;;
78589;SDS011;67888;50.228;7.828;2023-07-20T00:53:46;9.20;;;2.90;;
78589;SDS011;67888;50.228;7.828;2023-07-20T00:58:46;7.95;;;2.50;;
78589;SDS011;67888;50.228;7.828;2023-07-20T01:03:46;7.45;;;2.65;;
78589;SDS011;67888;50.228;7.828;2023-07-20T01:09:00;7.67;;;2.83;;
78589;SDS011;67888;50.228;7.828;2023-07-20T01:14:02;7.43;;;3.47;;
78589;SDS011;67888;50.228;7.828;2023-07-20T01:19:03;7.73;;;2.40;;
78589;SDS011;67888;50.228;7.828;2023-07-20T01:24:15;6.90;;;2.80;;
78589;SDS011;67888;50.228;7.828;2023-07-20T01:29:28;8.10;;;2.70;;
78589;SDS011;67888;50.228;7.828;2023-07-20T01:34:32;7.43;;;3.10;;
78589;SDS011;67888;50.228;7.828;2023-07-20T01:39:35;7.28;;;2.90;;
78589;SDS011;67888;50.228;7.828;2023-07-20T01:44:37;8.18;;;2.58;;
78589;SDS011;67888;50.228;7.828;2023-07-20T01:49:38;7.37;;;2.73;;
78589;SDS011;67888;50.228;7.828;2023-07-20T01:54:38;7.63;;;2.63;;
78589;SDS011;67888;50.228;7.828;2023-07-20T01:59:39;7.73;;;2.67;;
78589;SDS011;67888;50.228;7.828;2023-07-20T02:04:39;7.33;;;2.73;;
78589;SDS011;67888;50.228;7.828;2023-07-20T02:09:40;8.73;;;2.57;;
78589;SDS011;67888;50.228;7.828;2023-07-20T02:14:40;7.30;;;2.40;;
78589;SDS011;67888;50.228;7.828;2023-07-20T02:19:40;8.90;;;2.70;;
78589;SDS011;67888;50.228;7.828;2023-07-20T02:24:41;9.13;;;2.80;;
78589;SDS011;67888;50.228;7.828;2023-07-20T02:29:41;10.03;;;2.87;;
78589;SDS011;67888;50.228;7.828;2023-07-20T02:34:43;7.60;;;2.97;;
78589;SDS011;67888;50.228;7.828;2023-07-20T02:39:43;8.20;;;2.83;;
78589;SDS011;67888;50.228;7.828;2023-07-20T02:44:43;7.27;;;2.50;;
78589;SDS011;67888;50.228;7.828;2023-07-20T02:49:44;8.67;;;3.13;;
78589;SDS011;67888;50.228;7.828;2023-07-20T02:54:44;7.43;;;2.60;;
78589;SDS011;67888;50.228;7.828;2023-07-20T02:59:44;7.63;;;2.70;;
78589;SDS011;67888;50.228;7.828;2023-07-20T03:04:45;8.47;;;2.93;;
78589;SDS011;67888;50.228;7.828;2023-07-20T03:09:45;6.73;;;2.77;;
78589;SDS011;67888;50.228;7.828;2023-07-20T03:14:46;8.03;;;3.00;;
78589;SDS011;67888;50.228;7.828;2023-07-20T03:19:46;7.63;;;2.53;;
78589;SDS011;67888;50.228;7.828;2023-07-20T03:24:47;7.10;;;2.75;;
78589;SDS011;67888;50.228;7.828;2023-07-20T03:29:47;7.43;;;2.33;;
78589;SDS011;67888;50.228;7.828;2023-07-20T03:34:48;8.87;;;3.17;;
78589;SDS011;67888;50.228;7.828;2023-07-20T03:39:48;6.50;;;2.60;;
78589;SDS011;67888;50.228;7.828;2023-07-20T03:44:49;7.13;;;2.90;;
78589;SDS011;67888;50.228;7.828;2023-07-20T03:49:51;8.43;;;2.67;;
78589;SDS011;67888;50.228;7.828;2023-07-20T03:54:52;9.00;;;3.00;;
78589;SDS011;67888;50.228;7.828;2023-07-20T03:59:53;9.83;;;2.77;;
78589;SDS011;67888;50.228;7.828;2023-07-20T04:04:54;7.60;;;2.95;;
78589;SDS011;67888;50.228;7.828;2023-07-20T04:09:55;8.30;;;2.90;;
78589;SDS011;67888;50.228;7.828;2023-07-20T04:14:55;6.07;;;2.60;;
78589;SDS011;67888;50.228;7.828;2023-07-20T04:19:55;22.67;;;3.53;;
78589;SDS011;67888;50.228;7.828;2023-07-20T04:24:56;52.00;;;5.07;;
78589;SDS011;67888;50.228;7.828;2023-07-20T04:29:57;22.83;;;4.18;;
78589;SDS011;67888;50.228;7.828;2023-07-20T04:34:59;30.50;;;4.10;;
78589;SDS011;67888;50.228;7.828;2023-07-20T04:40:00;41.07;;;5.27;;
78589;SDS011;67888;50.228;7.828;2023-07-20T04:45:00;30.33;;;3.92;;
78589;SDS011;67888;50.228;7.828;2023-07-20T04:50:01;21.40;;;3.37;;
78589;SDS011;67888;50.228;7.828;2023-07-20T04:55:04;10.53;;;3.07;;
78589;SDS011;67888;50.228;7.828;2023-07-20T05:00:05;13.07;;;3.00;;
78589;SDS011;67888;50.228;7.828;2023-07-20T05:05:06;13.20;;;2.90;;
78589;SDS011;67888;50.228;7.828;2023-07-20T05:10:07;11.20;;;3.07;;
78589;SDS011;67888;50.228;7.828;2023-07-20T05:15:08;11.13;;;3.60;;
78589;SDS011;67888;50.228;7.828;2023-07-20T05:20:08;16.17;;;3.97;;
78589;SDS011;67888;50.228;7.828;2023-07-20T05:25:12;10.88;;;3.40;;
78589;SDS011;67888;50.228;7.828;2023-07-20T05:30:13;15.13;;;3.70;;
78589;SDS011;67888;50.228;7.828;2023-07-20T05:35:13;9.83;;;3.63;;
78589;SDS011;67888;50.228;7.828;2023-07-20T05:40:14;11.80;;;4.07;;
78589;SDS011;67888;50.228;7.828;2023-07-20T05:45:18;9.82;;;3.88;;
78589;SDS011;67888;50.228;7.828;2023-07-20T05:50:18;10.93;;;4.10;;
78589;SDS011;67888;50.228;7.828;2023-07-20T05:55:19;13.23;;;4.07;;
78589;SDS011;67888;50.228;7.828;2023-07-20T06:00:19;9.13;;;3.33;;
78589;SDS011;67888;50.228;7.828;2023-07-20T06:05:26;9.90;;;3.75;;
78589;SDS011;67888;50.228;7.828;2023-07-20T06:10:26;11.83;;;4.03;;
78589;SDS011;67888;50.228;7.828;2023-07-20T06:15:27;10.00;;;4.33;;
78589;SDS011;67888;50.228;7.828;2023-07-20T06:20:28;12.00;;;4.40;;
78589;SDS011;67888;50.228;7.828;2023-07-20T06:25:28;10.97;;;4.30;;
78589;SDS011;67888;50.228;7.828;2023-07-20T06:30:28;12.40;;;4.40;;
78589;SDS011;67888;50.228;7.828;2023-07-20T06:35:29;12.40;;;4.28;;
78589;SDS011;67888;50.228;7.828;2023-07-20T06:40:30;10.30;;;3.27;;
78589;SDS011;67888;50.228;7.828;2023-07-20T06:45:30;9.57;;;3.07;;
78589;SDS011;67888;50.228;7.828;2023-07-20T06:50:30;9.30;;;3.37;;
78589;SDS011;67888;50.228;7.828;2023-07-20T06:55:31;9.87;;;3.27;;
78589;SDS011;67888;50.228;7.828;2023-07-20T07:00:31;9.03;;;2.77;;
78589;SDS011;67888;50.228;7.828;2023-07-20T07:05:31;9.47;;;2.63;;
78589;SDS011;67888;50.228;7.828;2023-07-20T07:10:35;8.32;;;2.55;;
78589;SDS011;67888;50.228;7.828;2023-07-20T07:15:36;8.30;;;3.10;;
78589;SDS011;67888;50.228;7.828;2023-07-20T07:20:36;8.83;;;2.90;;
78589;SDS011;67888;50.228;7.828;2023-07-20T07:25:36;8.63;;;2.77;;
78589;SDS011;67888;50.228;7.828;2023-07-20T07:30:37;8.10;;;2.90;;
78589;SDS011;67888;50.228;7.828;2023-07-20T07:35:38;6.50;;;2.92;;
78589;SDS011;67888;50.228;7.828;2023-07-20T07:40:39;8.93;;;3.13;;
78589;SDS011;67888;50.228;7.828;2023-07-20T07:45:40;7.70;;;2.95;;
78589;SDS011;67888;50.228;7.828;2023-07-20T07:50:41;8.30;;;3.17;;
78589;SDS011;67888;50.228;7.828;2023-07-20T07:55:41;8.87;;;3.40;;
78589;SDS011;67888;50.228;7.828;2023-07-20T08:00:42;9.43;;;2.83;;
78589;SDS011;67888;50.228;7.828;2023-07-20T08:05:43;8.40;;;3.53;;
78589;SDS011;67888;50.228;7.828;2023-07-20T08:10:43;6.57;;;3.13;;
78589;SDS011;67888;50.228;7.828;2023-07-20T08:15:45;9.70;;;3.77;;
78589;SDS011;67888;50.228;7.828;2023-07-20T08:20:48;8.68;;;2.88;;
78589;SDS011;67888;50.228;7.828;2023-07-20T08:25:49;7.50;;;2.90;;
78589;SDS011;67888;50.228;7.828;2023-07-20T08:30:51;7.60;;;2.97;;
78589;SDS011;67888;50.228;7.828;2023-07-20T08:35:51;7.03;;;2.70;;
78589;SDS011;67888;50.228;7.828;2023-07-20T08:40:52;7.23;;;2.60;;
78589;SDS011;67888;50.228;7.828;2023-07-20T08:45:55;6.60;;;3.20;;
78589;SDS011;67888;50.228;7.828;2023-07-20T08:50:59;7.73;;;2.60;;
78589;SDS011;67888;50.228;7.828;2023-07-20T08:56:00;7.15;;;2.90;;
78589;SDS011;67888;50.228;7.828;2023-07-20T09:01:02;6.13;;;2.55;;
78589;SDS011;67888;50.228;7.828;2023-07-20T09:06:03;6.43;;;2.50;;
78589;SDS011;67888;50.228;7.828;2023-07-20T09:11:06;8.27;;;3.20;;
78589;SDS011;67888;50.228;7.828;2023-07-20T09:16:07;6.97;;;2.90;;
78589;SDS011;67888;50.228;7.828;2023-07-20T09:21:08;6.07;;;2.70;;
78589;SDS011;67888;50.228;7.828;2023-07-20T09:26:12;8.77;;;3.20;;
78589;SDS011;67888;50.228;7.828;2023-07-20T09:31:17;8.40;;;3.38;;
78589;SDS011;67888;50.228;7.828;2023-07-20T09:36:19;7.27;;;3.60;;
78589;SDS011;67888;50.228;7.828;2023-07-20T09:41:20;7.63;;;3.10;;
78589;SDS011;67888;50.228;7.828;2023-07-20T09:46:21;11.77;;;3.60;;
78589;SDS011;67888;50.228;7.828;2023-07-20T09:51:22;6.73;;;2.70;;
78589;SDS011;67888;50.228;7.828;2023-07-20T09:56:22;5.97;;;3.00;;
78589;SDS011;67888;50.228;7.828;2023-07-20T10:01:24;7.67;;;3.10;;
78589;SDS011;67888;50.228;7.828;2023-07-20T10:06:27;7.53;;;2.97;;
78589;SDS011;67888;50.228;7.828;2023-07-20T10:11:32;6.97;;;2.63;;
78589;SDS011;67888;50.228;7.828;2023-07-20T10:16:35;9.13;;;3.43;;
78589;SDS011;67888;50.228;7.828;2023-07-20T10:21:44;6.50;;;2.37;;
78589;SDS011;67888;50.228;7.828;2023-07-20T10:26:47;8.20;;;3.10;;
78589;SDS011;67888;50.228;7.828;2023-07-20T10:31:48;7.27;;;2.20;;
78589;SDS011;67888;50.228;7.828;2023-07-20T10:36:48;7.33;;;2.97;;
78589;SDS011;67888;50.228;7.828;2023-07-20T10:41:59;8.55;;;2.72;;
78589;SDS011;67888;50.228;7.828;2023-07-20T10:47:03;6.90;;;2.30;;
78589;SDS011;67888;50.228;7.828;2023-07-20T10:52:06;15.73;;;2.97;;
78589;SDS011;67888;50.228;7.828;2023-07-20T10:57:23;5.87;;;2.40;;
78589;SDS011;67888;50.228;7.828;2023-07-20T11:02:24;5.70;;;2.50;;
78589;SDS011;67888;50.228;7.828;2023-07-20T11:07:37;6.63;;;2.40;;
78589;SDS011;67888;50.228;7.828;2023-07-20T11:12:40;7.13;;;2.58;;
78589;SDS011;67888;50.228;7.828;2023-07-20T11:17:41;17.47;;;3.00;;
78589;SDS011;67888;50.228;7.828;2023-07-20T11:22:42;16.17;;;2.90;;
78589;SDS011;67888;50.228;7.828;2023-07-20T11:27:44;9.45;;;2.70;;
78589;SDS011;67888;50.228;7.828;2023-07-20T11:32:48;6.25;;;2.08;;
78589;SDS011;67888;50.228;7.828;2023-07-20T11:37:48;5.83;;;2.47;;
78589;SDS011;67888;50.228;7.828;2023-07-20T11:42:49;7.10;;;2.40;;
78589;SDS011;67888;50.228;7.828;2023-07-20T11:47:50;6.77;;;2.40;;
78589;SDS011;67888;50.228;7.828;2023-07-20T11:52:51;7.97;;;2.40;;
78589;SDS011;67888;50.228;7.828;2023-07-20T11:58:01;7.00;;;2.40;;
78589;SDS011;67888;50.228;7.828;2023-07-20T12:03:04;7.77;;;2.60;;
78589;SDS011;67888;50.228;7.828;2023-07-20T12:08:07;7.88;;;2.40;;
78589;SDS011;67888;50.228;7.828;2023-07-20T12:13:07;3.97;;;1.90;;
78589;SDS011;67888;50.228;7.828;2023-07-20T12:18:09;12.00;;;2.37;;
78589;SDS011;67888;50.228;7.828;2023-07-20T12:23:10;8.27;;;2.67;;
78589;SDS011;67888;50.228;7.828;2023-07-20T12:28:12;6.07;;;2.33;;
78589;SDS011;67888;50.228;7.828;2023-07-20T12:33:13;6.97;;;2.35;;
78589;SDS011;67888;50.228;7.828;2023-07-20T12:38:17;5.77;;;2.67;;
78589;SDS011;67888;50.228;7.828;2023-07-20T12:43:18;7.43;;;2.55;;
78589;SDS011;67888;50.228;7.828;2023-07-20T12:48:18;12.73;;;2.80;;
78589;SDS011;67888;50.228;7.828;2023-07-20T12:53:18;7.57;;;2.20;;
78589;SDS011;67888;50.228;7.828;2023-07-20T12:58:19;4.90;;;2.10;;
78589;SDS011;67888;50.228;7.828;2023-07-20T13:03:19;12.33;;;2.60;;
78589;SDS011;67888;50.228;7.828;2023-07-20T13:08:20;8.90;;;2.30;;
78589;SDS011;67888;50.228;7.828;2023-07-20T13:13:20;8.38;;;2.58;;
78589;SDS011;67888;50.228;7.828;2023-07-20T13:18:21;6.43;;;2.20;;
78589;SDS011;67888;50.228;7.828;2023-07-20T13:23:21;7.57;;;2.73;;
78589;SDS011;67888;50.228;7.828;2023-07-20T13:28:22;5.43;;;2.40;;
78589;SDS011;67888;50.228;7.828;2023-07-20T13:33:22;7.50;;;2.60;;
78589;SDS011;67888;50.228;7.828;2023-07-20T13:38:23;4.73;;;2.30;;
78589;SDS011;67888;50.228;7.828;2023-07-20T13:43:23;8.67;;;2.37;;
78589;SDS011;67888;50.228;7.828;2023-07-20T13:48:23;5.57;;;2.40;;
78589;SDS011;67888;50.228;7.828;2023-07-20T13:53:24;5.00;;;2.10;;
78589;SDS011;67888;50.228;7.828;2023-07-20T13:58:25;6.20;;;2.77;;
78589;SDS011;67888;50.228;7.828;2023-07-20T14:03:25;14.63;;;2.70;;
78589;SDS011;67888;50.228;7.828;2023-07-20T14:08:26;8.87;;;2.30;;
78589;SDS011;67888;50.228;7.828;2023-07-20T14:13:28;6.90;;;2.17;;
78589;SDS011;67888;50.228;7.828;2023-07-20T14:18:28;5.90;;;2.15;;
78589;SDS011;67888;50.228;7.828;2023-07-20T14:23:30;5.73;;;2.27;;
78589;SDS011;67888;50.228;7.828;2023-07-20T14:28:31;7.00;;;2.53;;
78589;SDS011;67888;50.228;7.828;2023-07-20T14:33:32;5.57;;;2.10;;
78589;SDS011;67888;50.228;7.828;2023-07-20T14:38:33;5.87;;;2.37;;
78589;SDS011;67888;50.228;7.828;2023-07-20T14:43:33;7.20;;;2.20;;
78589;SDS011;67888;50.228;7.828;2023-07-20T14:48:34;6.77;;;2.20;;
78589;SDS011;67888;50.228;7.828;2023-07-20T14:53:34;4.78;;;2.22;;
78589;SDS011;67888;50.228;7.828;2023-07-20T14:58:35;7.40;;;2.13;;
78589;SDS011;67888;50.228;7.828;2023-07-20T15:03:35;4.13;;;1.90;;
78589;SDS011;67888;50.228;7.828;2023-07-20T15:08:36;6.50;;;2.30;;
78589;SDS011;67888;50.228;7.828;2023-07-20T15:13:36;5.70;;;2.20;;
78589;SDS011;67888;50.228;7.828;2023-07-20T15:18:37;5.87;;;2.20;;
78589;SDS011;67888;50.228;7.828;2023-07-20T15:23:37;5.60;;;2.33;;
78589;SDS011;67888;50.228;7.828;2023-07-20T15:28:38;6.07;;;2.20;;
78589;SDS011;67888;50.228;7.828;2023-07-20T15:33:38;4.60;;;2.27;;
78589;SDS011;67888;50.228;7.828;2023-07-20T15:38:39;4.97;;;2.45;;
78589;SDS011;67888;50.228;7.828;2023-07-20T15:43:39;5.10;;;2.50;;
78589;SDS011;67888;50.228;7.828;2023-07-20T15:48:40;5.07;;;2.70;;
78589;SDS011;67888;50.228;7.828;2023-07-20T15:53:40;5.13;;;2.77;;
78589;SDS011;67888;50.228;7.828;2023-07-20T15:58:41;5.10;;;2.10;;
78589;SDS011;67888;50.228;7.828;2023-07-20T16:03:41;8.70;;;2.70;;
78589;SDS011;67888;50.228;7.828;2023-07-20T16:08:42;6.43;;;2.60;;
78589;SDS011;67888;50.228;7.828;2023-07-20T16:13:42;5.47;;;2.40;;
78589;SDS011;67888;50.228;7.828;2023-07-20T16:18:45;6.60;;;2.40;;
78589;SDS011;67888;50.228;7.828;2023-07-20T16:23:49;5.60;;;2.07;;
78589;SDS011;67888;50.228;7.828;2023-07-20T16:28:50;4.80;;;1.90;;
78589;SDS011;67888;50.228;7.828;2023-07-20T16:33:52;5.20;;;2.00;;
78589;SDS011;67888;50.228;7.828;2023-07-20T16:38:53;6.13;;;2.10;;
78589;SDS011;67888;50.228;7.828;2023-07-20T16:43:54;4.53;;;2.10;;
78589;SDS011;67888;50.228;7.828;2023-07-20T16:48:54;5.22;;;2.28;;
78589;SDS011;67888;50.228;7.828;2023-07-20T16:53:55;4.90;;;2.20;;
78589;SDS011;67888;50.228;7.828;2023-07-20T16:58:55;4.67;;;1.90;;
78589;SDS011;67888;50.228;7.828;2023-07-20T17:03:56;7.37;;;2.00;;
78589;SDS011;67888;50.228;7.828;2023-07-20T17:08:56;5.70;;;1.90;;
78589;SDS011;67888;50.228;7.828;2023-07-20T17:14:00;4.88;;;2.00;;
78589;SDS011;67888;50.228;7.828;2023-07-20T17:19:00;5.87;;;2.00;;
78589;SDS011;67888;50.228;7.828;2023-07-20T17:24:01;5.63;;;2.15;;
78589;SDS011;67888;50.228;7.828;2023-07-20T17:29:02;7.03;;;2.20;;
78589;SDS011;67888;50.228;7.828;2023-07-20T17:34:04;5.00;;;2.20;;
78589;SDS011;67888;50.228;7.828;2023-07-20T17:39:06;5.53;;;2.10;;
78589;SDS011;67888;50.228;7.828;2023-07-20T17:44:06;5.63;;;2.33;;
78589;SDS011;67888;50.228;7.828;2023-07-20T17:49:07;6.90;;;4.03;;
78589;SDS011;67888;50.228;7.828;2023-07-20T17:54:08;6.23;;;2.93;;
78589;SDS011;67888;50.228;7.828;2023-07-20T17:59:08;5.43;;;2.40;;
78589;SDS011;67888;50.228;7.828;2023-07-20T18:04:09;4.67;;;2.20;;
78589;SDS011;67888;50.228;7.828;2023-07-20T18:09:09;7.83;;;2.10;;
78589;SDS011;67888;50.228;7.828;2023-07-20T18:14:09;6.77;;;1.93;;
78589;SDS011;67888;50.228;7.828;2023-07-20T18:19:10;7.03;;;2.00;;
78589;SDS011;67888;50.228;7.828;2023-07-20T18:24:10;6.70;;;1.90;;
78589;SDS011;67888;50.228;7.828;2023-07-20T18:29:11;5.13;;;1.90;;
78589;SDS011;67888;50.228;7.828;2023-07-20T18:34:11;6.73;;;2.20;;
78589;SDS011;67888;50.228;7.828;2023-07-20T18:39:12;4.73;;;2.00;;
78589;SDS011;67888;50.228;7.828;2023-07-20T18:44:12;7.03;;;2.35;;
78589;SDS011;67888;50.228;7.828;2023-07-20T18:49:13;5.70;;;2.13;;
78589;SDS011;67888;50.228;7.828;2023-07-20T18:54:13;5.57;;;1.90;;
78589;SDS011;67888;50.228;7.828;2023-07-20T18:59:14;6.47;;;2.10;;
78589;SDS011;67888;50.228;7.828;2023-07-20T19:04:14;6.47;;;2.10;;
78589;SDS011;67888;50.228;7.828;2023-07-20T19:09:15;7.53;;;2.27;;
78589;SDS011;67888;50.228;7.828;2023-07-20T19:14:15;7.63;;;2.13;;
78589;SDS011;67888;50.228;7.828;2023-07-20T19:19:16;10.27;;;2.20;;
78589;SDS011;67888;50.228;7.828;2023-07-20T19:24:20;7.87;;;2.17;;
78589;SDS011;67888;50.228;7.828;2023-07-20T19:29:20;10.03;;;2.20;;
78589;SDS011;67888;50.228;7.828;2023-07-20T19:34:21;5.33;;;1.97;;
78589;SDS011;67888;50.228;7.828;2023-07-20T19:39:22;6.00;;;2.10;;
78589;SDS011;67888;50.228;7.828;2023-07-20T19:44:22;7.17;;;2.40;;
78589;SDS011;67888;50.228;7.828;2023-07-20T19:49:22;5.73;;;1.97;;
78589;SDS011;67888;50.228;7.828;2023-07-20T19:54:23;11.63;;;2.30;;
78589;SDS011;67888;50.228;7.828;2023-07-20T19:59:23;17.47;;;2.60;;
78589;SDS011;67888;50.228;7.828;2023-07-20T20:04:24;22.83;;;3.60;;
78589;SDS011;67888;50.228;7.828;2023-07-20T20:09:24;54.23;;;5.13;;
78589;SDS011;67888;50.228;7.828;2023-07-20T20:14:25;26.80;;;3.80;;
78589;SDS011;67888;50.228;7.828;2023-07-20T20:19:26;15.40;;;3.50;;
78589;SDS011;67888;50.228;7.828;2023-07-20T20:24:26;9.30;;;2.33;;
78589;SDS011;67888;50.228;7.828;2023-07-20T20:29:27;8.93;;;2.07;;
78589;SDS011;67888;50.228;7.828;2023-07-20T20:34:28;8.23;;;2.40;;
78589;SDS011;67888;50.228;7.828;2023-07-20T20:39:29;9.13;;;2.67;;
78589;SDS011;67888;50.228;7.828;2023-07-20T20:44:29;8.53;;;2.50;;
78589;SDS011;67888;50.228;7.828;2023-07-20T20:49:31;22.87;;;3.43;;
78589;SDS011;67888;50.228;7.828;2023-07-20T20:54:31;27.77;;;3.80;;
78589;SDS011;67888;50.228;7.828;2023-07-20T20:59:32;42.90;;;5.23;;
78589;SDS011;67888;50.228;7.828;2023-07-20T21:04:33;24.45;;;4.82;;
78589;SDS011;67888;50.228;7.828;2023-07-20T21:09:33;39.63;;;4.93;;
78589;SDS011;67888;50.228;7.828;2023-07-20T21:14:33;49.73;;;5.60;;
78589;SDS011;67888;50.228;7.828;2023-07-20T21:19:34;45.63;;;5.03;;
78589;SDS011;67888;50.228;7.828;2023-07-20T21:24:34;30.10;;;5.03;;
78589;SDS011;67888;50.228;7.828;2023-07-20T21:29:35;22.27;;;4.10;;
78589;SDS011;67888;50.228;7.828;2023-07-20T21:34:37;17.93;;;3.30;;
78589;SDS011;67888;50.228;7.828;2023-07-20T21:39:37;12.57;;;2.80;;
78589;SDS011;67888;50.228;7.828;2023-07-20T21:44:38;11.50;;;2.83;;
78589;SDS011;67888;50.228;7.828;2023-07-20T21:49:38;9.00;;;2.90;;
78589;SDS011;67888;50.228;7.828;2023-07-20T21:54:39;11.83;;;2.73;;
78589;SDS011;67888;50.228;7.828;2023-07-20T21:59:40;8.27;;;2.10;;
78589;SDS011;67888;50.228;7.828;2023-07-20T22:04:40;8.13;;;2.40;;
78589;SDS011;67888;50.228;7.828;2023-07-20T22:09:41;6.23;;;2.50;;
78589;SDS011;67888;50.228;7.828;2023-07-20T22:14:44;8.77;;;2.57;;
78589;SDS011;67888;50.228;7.828;2023-07-20T22:19:44;11.30;;;3.08;;
78589;SDS011;67888;50.228;7.828;2023-07-20T22:24:44;11.07;;;2.73;;
78589;SDS011;67888;50.228;7.828;2023-07-20T22:29:45;7.87;;;2.47;;
78589;SDS011;67888;50.228;7.828;2023-07-20T22:34:45;8.17;;;2.67;;
78589;SDS011;67888;50.228;7.828;2023-07-20T22:39:46;6.57;;;2.80;;
78589;SDS011;67888;50.228;7.828;2023-07-20T22:44:46;9.40;;;2.60;;
78589;SDS011;67888;50.228;7.828;2023-07-20T22:49:47;6.60;;;2.42;;
78589;SDS011;67888;50.228;7.828;2023-07-20T22:54:47;10.50;;;2.80;;
78589;SDS011;67888;50.228;7.828;2023-07-20T22:59:48;9.37;;;2.70;;
78589;SDS011;67888;50.228;7.828;2023-07-20T23:04:48;8.77;;;2.70;;
78589;SDS011;67888;50.228;7.828;2023-07-20T23:09:49;8.50;;;3.07;;
78589;SDS011;67888;50.228;7.828;2023-07-20T23:14:50;10.13;;;2.72;;
78589;SDS011;67888;50.228;7.828;2023-07-20T23:19:51;6.57;;;2.47;;
78589;SDS011;67888;50.228;7.828;2023-07-20T23:24:51;11.10;;;2.80;;
78589;SDS011;67888;50.228;7.828;2023-07-20T23:29:51;10.13;;;2.97;;
78589;SDS011;67888;50.228;7.828;2023-07-20T23:34:52;9.30;;;3.17;;
78589;SDS011;67888;50.228;7.828;2023-07-20T23:39:52;6.23;;;2.77;;
78589;SDS011;67888;50.228;7.828;2023-07-20T23:44:53;7.97;;;2.70;;
78589;SDS011;67888;50.228;7.828;2023-07-20T23:49:53;7.93;;;2.63;;
78589;SDS011;67888;50.228;7.828;2023-07-20T23:54:54;6.80;;;3.03;;
78589;SDS011;67888;50.228;7.828;2023-07-20T23:59:55;6.20;;;2.60;;
